Time;durP1;ratioP1;P1;durP2;ratioP2;P2;SDS_P1;SDS_P2;PMS_P1;PMS_P2;Temp;Humidity;BMP_temperature;BMP_pressure;BME280_temperature;BME280_humidity;BME280_pressure;Samples;Min_cycle;Max_cycle;Signal;HPM_P1;HPM_P2
2021/05/07 07:43:15;;;;;;;2.78;2.00;;;;;;;-142.70;100.00;60390.16;4727400;30;20087;-79
2021/05/07 07:45:40;;;;;;;5.68;1.65;;;;;;;-142.70;100.00;60390.16;4714976;30;20076;-80
2021/05/07 07:48:06;;;;;;;1.95;1.70;;;;;;;-142.70;100.00;60390.16;4715059;30;20056;-79
2021/05/07 07:50:32;;;;;;;3.50;1.77;;;;;;;-142.70;100.00;60390.16;4715098;30;20040;-79
2021/05/07 07:52:57;;;;;;;3.08;2.03;;;;;;;-142.70;100.00;60390.16;4715355;30;20029;-79
2021/05/07 07:55:23;;;;;;;5.22;2.05;;;;;;;-142.70;100.00;60390.16;4729626;30;20043;-80
2021/05/07 07:57:48;;;;;;;5.68;2.10;;;;;;;-142.70;100.00;60390.16;4729208;30;20032;-79
2021/05/07 08:00:14;;;;;;;4.63;2.00;;;;;;;-142.70;100.00;60390.16;4715178;30;20508;-78
2021/05/07 08:02:40;;;;;;;3.22;1.63;;;;;;;-142.70;100.00;60390.16;4729267;30;20028;-79
2021/05/07 08:05:06;;;;;;;2.25;1.80;;;;;;;-142.70;100.00;60390.16;4729921;30;20040;-80
2021/05/07 08:07:32;;;;;;;2.85;1.85;;;;;;;-142.70;100.00;60390.16;4728978;30;20056;-79
2021/05/07 08:09:57;;;;;;;5.18;1.88;;;;;;;-142.70;100.00;60390.16;4715036;30;20116;-78
2021/05/07 08:12:22;;;;;;;3.22;1.58;;;;;;;-142.70;100.00;60390.16;4714309;30;20047;-79
2021/05/07 08:14:48;;;;;;;3.55;1.70;;;;;;;-142.70;100.00;60390.16;4714748;30;20040;-79
2021/05/07 08:17:13;;;;;;;4.03;1.60;;;;;;;-142.70;100.00;60390.16;4730496;30;20055;-78
2021/05/07 08:19:39;;;;;;;5.45;1.77;;;;;;;-142.70;100.00;60390.16;4714372;30;20044;-80
2021/05/07 08:22:04;;;;;;;4.80;1.58;;;;;;;-142.70;100.00;60390.16;4730838;30;20090;-79
2021/05/07 08:24:30;;;;;;;4.13;1.50;;;;;;;-142.70;100.00;60390.16;4728510;30;20036;-79
2021/05/07 08:26:57;;;;;;;5.30;1.80;;;;;;;-142.70;100.00;60390.16;4700072;30;20037;-79
2021/05/07 08:29:23;;;;;;;3.13;1.45;;;;;;;-142.70;100.00;60390.16;4728908;30;20035;-78
2021/05/07 08:31:48;;;;;;;5.20;1.60;;;;;;;-142.70;100.00;60390.16;4700232;30;20037;-79
2021/05/07 08:34:15;;;;;;;2.53;1.40;;;;;;;-142.70;100.00;60390.16;4728756;30;20053;-79
2021/05/07 08:36:40;;;;;;;2.20;1.80;;;;;;;-142.70;100.00;60390.16;4714111;30;20104;-80
2021/05/07 08:39:06;;;;;;;2.55;1.38;;;;;;;-142.70;100.00;60390.16;4714786;30;20034;-80
2021/05/07 08:41:31;;;;;;;4.30;1.50;;;;;;;-142.70;100.00;60390.16;4713651;30;20461;-79
2021/05/07 08:43:57;;;;;;;2.25;1.65;;;;;;;-142.70;100.00;60390.16;4728686;30;20052;-80
2021/05/07 08:46:22;;;;;;;1.95;1.40;;;;;;;-142.70;100.00;60390.16;4712380;30;20052;-80
2021/05/07 08:48:48;;;;;;;6.00;1.73;;;;;;;-142.70;100.00;60390.16;4699113;30;20036;-79
2021/05/07 08:51:13;;;;;;;3.40;1.80;;;;;;;-142.70;100.00;60390.16;4713107;30;20028;-79
2021/05/07 08:53:39;;;;;;;3.42;1.50;;;;;;;-142.70;100.00;60390.16;4712778;30;20036;-79
2021/05/07 08:56:08;;;;;;;5.00;1.85;;;;;;;-142.70;100.00;60390.16;4727961;30;20036;-80
2021/05/07 08:58:34;;;;;;;4.35;1.40;;;;;;;-142.70;100.00;60390.16;4712280;30;20086;-80
2021/05/07 09:00:59;;;;;;;4.70;1.40;;;;;;;-142.70;100.00;60390.16;4699467;30;20105;-80
2021/05/07 09:03:25;;;;;;;5.65;1.60;;;;;;;-142.70;100.00;60390.16;4712253;30;20037;-79
2021/05/07 09:05:50;;;;;;;8.20;1.70;;;;;;;-142.70;100.00;60390.16;4729159;30;20032;-80
2021/05/07 09:08:16;;;;;;;7.70;1.60;;;;;;;-142.70;100.00;60390.16;4698038;30;20341;-80
2021/05/07 09:10:45;;;;;;;4.05;1.67;;;;;;;-142.70;100.00;60390.16;4712855;30;20047;-79
2021/05/07 09:13:12;;;;;;;2.20;1.30;;;;;;;-142.70;100.00;60390.16;4712882;30;20032;-80
2021/05/07 09:15:44;;;;;;;4.53;1.40;;;;;;;-142.70;100.00;60390.16;4726897;30;20090;-80
2021/05/07 09:18:11;;;;;;;3.47;1.63;;;;;;;-142.70;100.00;60390.16;4713274;30;20044;-80
2021/05/07 09:20:49;;;;;;;2.45;1.40;;;;;;;-142.70;100.00;60390.16;4726258;30;20071;-80
2021/05/07 09:23:17;;;;;;;2.17;1.00;;;;;;;-142.70;100.00;60390.16;4713025;30;20040;-80
2021/05/07 09:25:51;;;;;;;4.22;1.65;;;;;;;-142.70;100.00;60390.16;4697754;30;20821;-80
2021/05/07 09:28:17;;;;;;;1.85;1.52;;;;;;;-142.70;100.00;60390.16;4712861;30;20036;-80
2021/05/07 09:30:43;;;;;;;2.47;1.85;;;;;;;-142.70;100.00;60390.16;4727093;30;20029;-79
2021/05/07 09:33:10;;;;;;;4.85;3.60;;;;;;;-142.70;100.00;60390.16;4712233;30;20413;-79
2021/05/07 09:35:36;;;;;;;4.78;1.88;;;;;;;-142.70;100.00;60390.16;4713242;30;20033;-79
2021/05/07 09:38:03;;;;;;;3.08;2.47;;;;;;;-142.70;100.00;60390.16;4712028;30;20052;-79
2021/05/07 09:40:29;;;;;;;3.38;2.00;;;;;;;-142.70;100.00;60390.16;4712721;30;20048;-77
2021/05/07 09:43:11;;;;;;;2.72;1.70;;;;;;;-142.70;100.00;60390.16;4727579;30;20072;-79
2021/05/07 09:45:41;;;;;;;5.25;1.50;;;;;;;-142.70;100.00;60390.16;4712434;30;20033;-79
2021/05/07 09:48:19;;;;;;;4.18;1.77;;;;;;;-142.70;100.00;60390.16;4713023;30;20041;-80
2021/05/07 09:50:45;;;;;;;2.40;1.60;;;;;;;-142.70;100.00;60390.16;4727637;30;20056;-80
2021/05/07 09:53:16;;;;;;;4.80;1.95;;;;;;;-142.70;100.00;60390.16;4712938;30;20060;-79
2021/05/07 09:55:42;;;;;;;5.00;1.63;;;;;;;-142.70;100.00;60390.16;4711887;30;20040;-79
2021/05/07 09:58:07;;;;;;;5.55;1.67;;;;;;;-142.70;100.00;60390.16;4712425;30;20040;-80
2021/05/07 10:00:33;;;;;;;7.85;1.80;;;;;;;-142.70;100.00;60390.16;4727885;30;20033;-78
2021/05/07 10:02:59;;;;;;;3.58;1.70;;;;;;;-142.70;100.00;60390.16;4712319;30;20043;-79
2021/05/07 10:05:24;;;;;;;3.90;1.77;;;;;;;-142.70;100.00;60390.16;4712937;30;20077;-79
2021/05/07 10:07:50;;;;;;;3.45;1.55;;;;;;;-142.70;100.00;60390.16;4727378;30;20498;-79
2021/05/07 10:10:16;;;;;;;2.60;1.42;;;;;;;-142.70;100.00;60390.16;4713150;30;20053;-80
2021/05/07 10:12:41;;;;;;;2.10;1.52;;;;;;;-142.70;100.00;60390.16;4711689;30;20044;-79
2021/05/07 10:15:07;;;;;;;1.98;1.42;;;;;;;-142.70;100.00;60390.16;4698453;30;20036;-80
2021/05/07 10:17:32;;;;;;;1.70;1.60;;;;;;;-142.70;100.00;60390.16;4726541;30;20040;-79
2021/05/07 10:19:58;;;;;;;4.18;1.40;;;;;;;-142.70;100.00;60390.16;4712338;30;20036;-80
2021/05/07 10:22:38;;;;;;;8.68;1.90;;;;;;;-142.70;100.00;60390.16;4728180;30;20044;-79
2021/05/07 10:25:15;;;;;;;2.13;1.80;;;;;;;-142.70;100.00;60390.16;4711516;30;20048;-79
2021/05/07 10:27:45;;;;;;;2.13;1.50;;;;;;;-142.70;100.00;60390.16;4728508;30;20033;-80
2021/05/07 10:30:23;;;;;;;2.33;1.40;;;;;;;-142.70;100.00;60390.16;4722289;30;20055;-80
2021/05/07 10:33:00;;;;;;;3.60;1.65;;;;;;;-142.70;100.00;60390.16;4729156;30;20411;-80
2021/05/07 10:35:47;;;;;;;3.50;1.65;;;;;;;-142.70;100.00;60390.16;4718415;30;20119;-80
2021/05/07 10:38:17;;;;;;;3.25;1.52;;;;;;;-142.70;100.00;60390.16;4717441;30;20044;-80
2021/05/07 10:40:43;;;;;;;7.13;1.88;;;;;;;-142.70;100.00;60390.16;4719455;30;20051;-80
2021/05/07 10:43:08;;;;;;;2.17;1.60;;;;;;;-142.70;100.00;60390.16;4721898;30;20052;-80
2021/05/07 10:45:44;;;;;;;1.85;1.38;;;;;;;-142.70;100.00;60390.16;4708566;30;20514;-79
2021/05/07 10:48:23;;;;;;;1.77;1.50;;;;;;;-142.70;100.00;60390.16;4715460;30;20459;-80
2021/05/07 10:50:51;;;;;;;1.48;1.33;;;;;;;-142.70;100.00;60390.16;4714773;30;20057;-80
2021/05/07 10:53:26;;;;;;;4.32;1.38;;;;;;;-142.70;100.00;60390.16;4715529;30;20120;-79
2021/05/07 10:55:52;;;;;;;2.80;1.58;;;;;;;-142.70;100.00;60390.16;4729789;30;20091;-79
2021/05/07 10:58:28;;;;;;;6.00;1.50;;;;;;;-142.70;100.00;60390.16;4711497;30;20051;-79
2021/05/07 11:00:54;;;;;;;1.92;1.65;;;;;;;-142.70;100.00;60390.16;4704949;30;20041;-80
2021/05/07 11:03:19;;;;;;;2.58;1.30;;;;;;;-142.70;100.00;60390.16;4709044;30;20032;-79
2021/05/07 11:05:48;;;;;;;4.88;1.52;;;;;;;-142.70;100.00;60390.16;4716796;30;20094;-79
2021/05/07 11:08:14;;;;;;;;;;;;;;;-142.70;100.00;60390.16;4704306;30;20468;-80
2021/05/07 11:10:40;;;;;;;1.50;1.35;;;;;;;-142.70;100.00;60390.16;4712693;30;19926;-80
2021/05/07 11:13:06;;;;;;;5.18;1.42;;;;;;;-142.70;100.00;60390.16;4682480;30;20045;-80
2021/05/07 11:15:31;;;;;;;3.45;1.58;;;;;;;-142.70;100.00;60390.16;4698198;30;20251;-80
2021/05/07 11:18:01;;;;;;;5.05;1.40;;;;;;;-142.70;100.00;60390.16;4682180;30;20468;-80
2021/05/07 11:20:40;;;;;;;3.50;1.20;;;;;;;-142.70;100.00;60390.16;4729515;30;20503;-80
2021/05/07 11:23:10;;;;;;;3.75;1.30;;;;;;;-142.70;100.00;60390.16;4684490;30;20030;-80
2021/05/07 11:25:35;;;;;;;2.47;1.13;;;;;;;-142.70;100.00;60390.16;4700573;30;20051;-80
2021/05/07 11:28:13;;;;;;;3.20;1.60;;;;;;;-142.70;100.00;60390.16;4700297;30;20040;-79
2021/05/07 11:30:45;;;;;;;2.83;1.17;;;;;;;-142.70;100.00;60390.16;4699781;30;20033;-78
2021/05/07 11:33:11;;;;;;;1.38;1.02;;;;;;;-142.70;100.00;60390.16;4730307;30;20036;-80
2021/05/07 11:35:36;;;;;;;3.33;1.20;;;;;;;-142.70;100.00;60390.16;4717183;30;20052;-80
2021/05/07 11:38:02;;;;;;;1.75;1.13;;;;;;;-142.70;100.00;60390.16;4715806;30;20036;-79
2021/05/07 11:40:37;;;;;;;5.18;1.38;;;;;;;-142.70;100.00;60390.16;4690633;30;20192;-80
2021/05/07 11:43:12;;;;;;;1.73;1.25;;;;;;;-142.70;100.00;60390.16;4717773;30;20431;-79
2021/05/07 11:45:39;;;;;;;1.55;1.08;;;;;;;-142.70;100.00;60390.16;4722844;30;20024;-80
2021/05/07 11:48:11;;;;;;;2.40;1.10;;;;;;;-142.70;100.00;60390.16;4702565;30;20538;-80
2021/05/07 11:50:37;;;;;;;3.95;1.10;;;;;;;-142.70;100.00;60390.16;4713614;30;20484;-79
2021/05/07 11:53:03;;;;;;;2.10;0.80;;;;;;;-142.70;100.00;60390.16;4699015;30;20044;-81
2021/05/07 11:55:30;;;;;;;3.42;0.90;;;;;;;-142.70;100.00;60390.16;4729388;30;20024;-81
2021/05/07 11:57:59;;;;;;;3.50;1.75;;;;;;;-142.70;100.00;60390.16;4698628;30;20124;-80
2021/05/07 12:00:25;;;;;;;1.83;1.38;;;;;;;-142.70;100.00;60390.16;4697312;30;20037;-81
2021/05/07 12:03:06;;;;;;;3.80;1.20;;;;;;;-142.70;100.00;60390.16;4699796;30;20755;-80
2021/05/07 12:05:39;;;;;;;1.60;0.98;;;;;;;-142.70;100.00;60390.16;4712719;30;20032;-80
2021/05/07 12:08:05;;;;;;;1.90;0.88;;;;;;;-142.70;100.00;60390.16;4689058;30;20431;-82
2021/05/07 12:10:31;;;;;;;1.52;0.52;;;;;;;-142.70;100.00;60390.16;4714044;30;20039;-80
2021/05/07 12:12:58;;;;;;;3.72;0.73;;;;;;;-142.70;100.00;60390.16;4698214;30;20048;-80
2021/05/07 12:15:27;;;;;;;12.65;1.25;;;;;;;-142.70;100.00;60390.16;4714802;30;20419;-79
2021/05/07 12:17:52;;;;;;;10.85;1.50;;;;;;;-142.70;100.00;60390.16;4713447;30;20083;-83
2021/05/07 12:20:26;;;;;;;14.20;1.88;;;;;;;-142.70;100.00;60390.16;4713597;30;20492;-80
2021/05/07 12:22:59;;;;;;;1.92;0.90;;;;;;;-142.70;100.00;60390.16;4713102;30;20040;-79
2021/05/07 12:25:26;;;;;;;1.13;0.60;;;;;;;-142.70;100.00;60390.16;4714700;30;20049;-79
2021/05/07 12:27:53;;;;;;;2.72;0.93;;;;;;;-142.70;100.00;60390.16;4698923;30;20043;-79
2021/05/07 12:30:18;;;;;;;2.63;1.02;;;;;;;-142.70;100.00;60390.16;4698640;30;20399;-79
2021/05/07 12:32:56;;;;;;;3.80;0.93;;;;;;;-142.70;100.00;60390.16;4729902;30;20039;-78
2021/05/07 12:35:22;;;;;;;3.47;0.95;;;;;;;-142.70;100.00;60390.16;4727741;30;20048;-78
2021/05/07 12:37:48;;;;;;;1.55;0.60;;;;;;;-142.70;100.00;60390.16;4729493;30;20041;-80
2021/05/07 12:40:13;;;;;;;2.00;0.70;;;;;;;-142.70;100.00;60390.16;4712994;30;20037;-82
2021/05/07 12:42:39;;;;;;;2.40;1.08;;;;;;;-142.70;100.00;60390.16;4698752;30;20482;-80
2021/05/07 12:45:05;;;;;;;2.60;0.65;;;;;;;-142.70;100.00;60390.16;4713289;30;20047;-79
2021/05/07 12:47:30;;;;;;;3.92;1.27;;;;;;;-142.70;100.00;60390.16;4728657;30;20567;-80
2021/05/07 12:49:56;;;;;;;4.47;1.23;;;;;;;-142.70;100.00;60390.16;4699546;30;20029;-81
2021/05/07 12:52:22;;;;;;;20.27;1.38;;;;;;;-142.70;100.00;60390.16;4712213;30;20099;-81
2021/05/07 12:54:48;;;;;;;2.50;0.65;;;;;;;-142.70;100.00;60390.16;4713613;30;20400;-85
2021/05/07 12:57:13;;;;;;;3.80;0.73;;;;;;;-142.70;100.00;60390.16;4712596;30;20032;-80
2021/05/07 12:59:39;;;;;;;3.53;0.70;;;;;;;-142.70;100.00;60390.16;4713215;30;20041;-78
2021/05/07 13:02:04;;;;;;;3.15;0.82;;;;;;;-142.70;100.00;60390.16;4728554;30;20040;-77
2021/05/07 13:04:29;;;;;;;3.80;0.70;;;;;;;-142.70;100.00;60390.16;4713037;30;20043;-84
2021/05/07 13:06:55;;;;;;;1.90;0.68;;;;;;;-142.70;100.00;60390.16;4729146;30;20037;-79
2021/05/07 13:09:20;;;;;;;3.47;0.70;;;;;;;-142.70;100.00;60390.16;4697973;30;20502;-81
2021/05/07 13:11:46;;;;;;;7.60;1.17;;;;;;;-142.70;100.00;60390.16;4712775;30;21661;-81
2021/05/07 13:14:11;;;;;;;2.38;0.60;;;;;;;-142.70;100.00;60390.16;4712407;30;20029;-80
2021/05/07 13:16:37;;;;;;;2.17;0.57;;;;;;;-142.70;100.00;60390.16;4713114;30;20049;-78
2021/05/07 13:19:02;;;;;;;1.02;0.57;;;;;;;-142.70;100.00;60390.16;4712317;30;20036;-79
2021/05/07 13:21:29;;;;;;;1.83;0.70;;;;;;;-142.70;100.00;60390.16;4713714;30;20029;-82
2021/05/07 13:23:55;;;;;;;4.63;1.00;;;;;;;-142.70;100.00;60390.16;4681506;30;20045;-82
2021/05/07 13:26:21;;;;;;;2.97;1.02;;;;;;;-142.70;100.00;60390.16;4680936;30;20059;-83
2021/05/07 13:28:48;;;;;;;4.15;0.80;;;;;;;-142.70;100.00;60390.16;4695915;30;20045;-82
2021/05/07 13:31:14;;;;;;;4.10;1.05;;;;;;;-142.70;100.00;60390.16;4727741;30;20067;-82
2021/05/07 13:33:39;;;;;;;3.00;0.80;;;;;;;-142.70;100.00;60390.16;4729195;30;20515;-77
2021/05/07 13:36:05;;;;;;;7.22;0.90;;;;;;;-142.70;100.00;60390.16;4728138;30;20063;-81
2021/05/07 13:38:30;;;;;;;1.67;0.77;;;;;;;-142.70;100.00;60390.16;4698141;30;20529;-79
2021/05/07 13:40:56;;;;;;;10.75;0.98;;;;;;;-142.70;100.00;60390.16;4697271;30;20037;-78
2021/05/07 13:43:22;;;;;;;2.00;0.68;;;;;;;-142.70;100.00;60390.16;4727331;30;20059;-80
2021/05/07 13:45:47;;;;;;;2.80;0.80;;;;;;;-142.70;100.00;60390.16;4707294;30;20029;-78
2021/05/07 13:48:13;;;;;;;1.25;0.45;;;;;;;-142.70;100.00;60390.16;4711469;30;20029;-78
2021/05/07 13:50:38;;;;;;;4.75;1.00;;;;;;;-142.70;100.00;60390.16;4712765;30;20045;-80
2021/05/07 13:53:03;;;;;;;7.93;1.25;;;;;;;-142.70;100.00;60390.16;4703321;30;20051;-82
2021/05/07 13:55:29;;;;;;;2.97;0.82;;;;;;;-142.70;100.00;60390.16;4697309;30;20048;-83
2021/05/07 13:57:55;;;;;;;6.93;1.02;;;;;;;-142.70;100.00;60390.16;4731736;30;20520;-81
2021/05/07 14:00:20;;;;;;;4.22;0.60;;;;;;;-142.70;100.00;60390.16;4717066;30;20603;-79
2021/05/07 14:02:46;;;;;;;5.30;0.90;;;;;;;-142.70;100.00;60390.16;4727601;30;20041;-83
2021/05/07 14:05:11;;;;;;;2.75;1.00;;;;;;;-142.70;100.00;60390.16;4727948;30;20040;-82
2021/05/07 14:07:37;;;;;;;5.10;1.10;;;;;;;-142.70;100.00;60390.16;4716400;30;20087;-83
2021/05/07 14:10:06;;;;;;;5.47;1.05;;;;;;;-142.70;100.00;60390.16;4715428;30;20427;-84
2021/05/07 14:12:32;;;;;;;4.22;0.90;;;;;;;-142.70;100.00;60390.16;4701483;30;20087;-85
2021/05/07 14:14:57;;;;;;;2.03;0.80;;;;;;;-142.70;100.00;60390.16;4715156;30;20515;-83
2021/05/07 14:17:23;;;;;;;1.67;0.80;;;;;;;-142.70;100.00;60390.16;4701271;30;20037;-82
2021/05/07 14:19:48;;;;;;;1.88;0.73;;;;;;;-142.70;100.00;60390.16;4715678;30;20071;-81
2021/05/07 14:22:14;;;;;;;4.32;0.80;;;;;;;-142.70;100.00;60390.16;4731426;30;20491;-81
2021/05/07 14:24:40;;;;;;;4.88;1.13;;;;;;;-142.70;100.00;60390.16;4731677;30;20029;-81
2021/05/07 14:27:05;;;;;;;3.33;0.93;;;;;;;-142.70;100.00;60390.16;4700443;30;20040;-82
2021/05/07 14:29:31;;;;;;;4.88;0.80;;;;;;;-142.70;100.00;60390.16;4701410;30;20044;-81
2021/05/07 14:31:56;;;;;;;2.95;1.10;;;;;;;-142.70;100.00;60390.16;4714850;30;20033;-80
2021/05/07 14:34:23;;;;;;;4.22;0.98;;;;;;;-142.70;100.00;60390.16;4715941;30;20029;-79
2021/05/07 14:36:49;;;;;;;2.92;0.90;;;;;;;-142.70;100.00;60390.16;4715434;30;20040;-82
2021/05/07 14:39:14;;;;;;;2.92;0.80;;;;;;;-142.70;100.00;60390.16;4715472;30;20507;-81
2021/05/07 14:41:40;;;;;;;2.80;0.85;;;;;;;-142.70;100.00;60390.16;4715373;30;20040;-81
2021/05/07 14:44:06;;;;;;;4.32;0.80;;;;;;;-142.70;100.00;60390.16;4714393;30;20060;-81
2021/05/07 14:46:31;;;;;;;5.35;0.90;;;;;;;-142.70;100.00;60390.16;4715648;30;20117;-81
2021/05/07 14:48:57;;;;;;;2.40;1.08;;;;;;;-142.70;100.00;60390.16;4729287;30;20029;-81
2021/05/07 14:51:22;;;;;;;3.40;1.10;;;;;;;-142.70;100.00;60390.16;4715525;30;20048;-81
2021/05/07 14:53:48;;;;;;;2.17;0.80;;;;;;;-142.70;100.00;60390.16;4714503;30;20124;-81
2021/05/07 14:56:13;;;;;;;2.70;0.77;;;;;;;-142.70;100.00;60390.16;4730181;30;20029;-81
2021/05/07 14:58:39;;;;;;;3.03;0.90;;;;;;;-142.70;100.00;60390.16;4730023;30;20045;-82
2021/05/07 15:01:04;;;;;;;3.92;1.30;;;;;;;-142.70;100.00;60390.16;4715201;30;20563;-80
2021/05/07 15:03:30;;;;;;;4.18;1.30;;;;;;;-142.70;100.00;60390.16;4714273;30;20025;-80
2021/05/07 15:05:59;;;;;;;10.05;9.13;;;;;;;-142.70;100.00;60390.16;4722627;30;20034;-81
2021/05/07 15:08:25;;;;;;;5.88;3.70;;;;;;;-142.70;100.00;60390.16;4670138;30;20118;-82
2021/05/07 15:10:51;;;;;;;9.20;1.20;;;;;;;-142.70;100.00;60390.16;4686585;30;20044;-82
2021/05/07 15:13:17;;;;;;;6.35;1.38;;;;;;;-142.70;100.00;60390.16;4715236;30;20488;-81
2021/05/07 15:15:42;;;;;;;4.85;1.10;;;;;;;-142.70;100.00;60390.16;4699870;30;20035;-81
2021/05/07 15:18:08;;;;;;;2.42;1.48;;;;;;;-142.70;100.00;60390.16;4714021;30;20427;-80
2021/05/07 15:20:33;;;;;;;4.53;1.20;;;;;;;-142.70;100.00;60390.16;4700382;30;20401;-79
2021/05/07 15:22:59;;;;;;;5.55;1.30;;;;;;;-142.70;100.00;60390.16;4730244;30;20060;-80
2021/05/07 15:25:24;;;;;;;7.82;1.30;;;;;;;-142.70;100.00;60390.16;4701101;30;20044;-81
2021/05/07 15:27:50;;;;;;;8.43;1.42;;;;;;;-142.70;100.00;60390.16;4699299;30;20037;-80
2021/05/07 15:30:18;;;;;;;9.43;1.70;;;;;;;-142.70;100.00;60390.16;4715250;30;20033;-81
2021/05/07 15:32:44;;;;;;;13.60;2.35;;;;;;;-142.70;100.00;60390.16;4714089;30;20556;-81
2021/05/07 15:35:10;;;;;;;5.65;1.77;;;;;;;-142.70;100.00;60390.16;4730563;30;20039;-80
2021/05/07 15:37:36;;;;;;;9.68;2.13;;;;;;;-142.70;100.00;60390.16;4699732;30;20547;-80
2021/05/07 15:40:05;;;;;;;5.53;1.50;;;;;;;-142.70;100.00;60390.16;4714667;30;20033;-81
2021/05/07 15:42:31;;;;;;;10.30;1.40;;;;;;;-142.70;100.00;60390.16;4714513;30;20040;-80
2021/05/07 15:44:56;;;;;;;2.53;1.48;;;;;;;-142.70;100.00;60390.16;4713387;30;20098;-81
2021/05/07 15:47:22;;;;;;;7.15;1.80;;;;;;;-142.70;100.00;60390.16;4715007;30;20033;-81
2021/05/07 15:49:48;;;;;;;4.82;1.63;;;;;;;-142.70;100.00;60390.16;4699443;30;20028;-81
2021/05/07 15:52:13;;;;;;;4.15;1.50;;;;;;;-142.70;100.00;60390.16;4714685;30;20033;-80
2021/05/07 15:54:39;;;;;;;2.10;1.40;;;;;;;-142.70;100.00;60390.16;4729648;30;20032;-80
2021/05/07 15:57:04;;;;;;;1.90;1.65;;;;;;;-142.70;100.00;60390.16;4713955;30;20508;-80
2021/05/07 15:59:30;;;;;;;2.67;1.80;;;;;;;-142.70;100.00;60390.16;4714390;30;20071;-80
2021/05/07 16:01:55;;;;;;;6.97;1.90;;;;;;;-142.70;100.00;60390.16;4699087;30;20028;-81
2021/05/07 16:04:22;;;;;;;5.13;2.30;;;;;;;-142.70;100.00;60390.16;4715018;30;20068;-80
2021/05/07 16:06:47;;;;;;;2.50;1.80;;;;;;;-142.70;100.00;60390.16;4717436;30;20537;-80
2021/05/07 16:09:13;;;;;;;4.45;1.67;;;;;;;-142.70;100.00;60390.16;4707293;30;20044;-80
2021/05/07 16:11:40;;;;;;;8.35;3.33;;;;;;;-142.70;100.00;60390.16;4712059;30;20029;-81
2021/05/07 16:14:09;;;;;;;5.00;2.47;;;;;;;-142.70;100.00;60390.16;4712676;30;20427;-81
2021/05/07 16:16:35;;;;;;;;;;;;;;;-142.70;100.00;60390.16;4684205;30;20033;-81
2021/05/07 16:19:01;;;;;;;6.15;2.22;;;;;;;-142.70;100.00;60390.16;4713067;30;20017;-81
2021/05/07 16:21:26;;;;;;;12.15;2.25;;;;;;;-142.70;100.00;60390.16;4708563;30;20069;-80
2021/05/07 16:23:52;;;;;;;6.32;2.80;;;;;;;-142.70;100.00;60390.16;4724672;30;20580;-80
2021/05/07 16:26:20;;;;;;;5.78;2.70;;;;;;;-142.70;100.00;60390.16;4706954;30;20056;-81
2021/05/07 16:28:46;;;;;;;19.05;3.15;;;;;;;-142.70;100.00;60390.16;4726007;30;20060;-85
2021/05/07 16:31:12;;;;;;;5.32;2.58;;;;;;;-142.70;100.00;60390.16;4699314;30;20129;-80
2021/05/07 16:33:37;;;;;;;7.78;2.50;;;;;;;-142.70;100.00;60390.16;4729096;30;20029;-80
2021/05/07 16:36:04;;;;;;;5.82;2.47;;;;;;;-142.70;100.00;60390.16;4698954;30;20047;-82
2021/05/07 16:38:36;;;;;;;6.57;2.63;;;;;;;-142.70;100.00;60390.16;4684647;30;20431;-80
2021/05/07 16:41:01;;;;;;;5.68;2.88;;;;;;;-142.70;100.00;60390.16;4700064;30;20176;-80
2021/05/07 16:43:27;;;;;;;5.97;2.33;;;;;;;-142.70;100.00;60390.16;4699331;30;20061;-80
2021/05/07 16:45:52;;;;;;;7.22;2.58;;;;;;;-142.70;100.00;60390.16;4696482;30;20048;-80
2021/05/07 16:48:18;;;;;;;7.10;2.83;;;;;;;-142.70;100.00;60390.16;4702605;30;20045;-79
2021/05/07 16:50:45;;;;;;;5.18;2.80;;;;;;;-142.70;100.00;60390.16;4719072;30;20480;-79
2021/05/07 16:53:10;;;;;;;7.10;2.50;;;;;;;-142.70;100.00;60390.16;4722436;30;20088;-82
2021/05/07 16:55:36;;;;;;;3.72;2.85;;;;;;;-142.70;100.00;60390.16;4718690;30;20036;-80
2021/05/07 16:58:01;;;;;;;11.35;3.00;;;;;;;-142.70;100.00;60390.16;4720940;30;20024;-84
2021/05/07 17:00:27;;;;;;;6.95;2.42;;;;;;;-142.70;100.00;60390.16;4704235;30;20101;-81
2021/05/07 17:02:53;;;;;;;6.00;2.58;;;;;;;-142.70;100.00;60390.16;4705865;30;20524;-81
2021/05/07 17:05:18;;;;;;;4.18;2.70;;;;;;;-142.70;100.00;60390.16;4732892;30;20020;-81
2021/05/07 17:07:44;;;;;;;6.47;2.70;;;;;;;-142.70;100.00;60390.16;4697873;30;20064;-81
2021/05/07 17:10:10;;;;;;;4.63;2.22;;;;;;;-142.70;100.00;60390.16;4713036;30;20029;-81
2021/05/07 17:12:35;;;;;;;3.92;2.20;;;;;;;-142.70;100.00;60390.16;4698371;30;20054;-82
2021/05/07 17:15:01;;;;;;;5.30;2.28;;;;;;;-142.70;100.00;60390.16;4728728;30;20508;-81
2021/05/07 17:17:26;;;;;;;11.60;2.95;;;;;;;-142.70;100.00;60390.16;4713200;30;20724;-81
2021/05/07 17:19:52;;;;;;;5.97;2.67;;;;;;;-142.70;100.00;60390.16;4727845;30;20040;-80
2021/05/07 17:22:17;;;;;;;8.02;2.95;;;;;;;-142.70;100.00;60390.16;4729106;30;20049;-81
2021/05/07 17:24:43;;;;;;;3.80;1.77;;;;;;;-142.70;100.00;60390.16;4728223;30;20040;-83
2021/05/07 17:27:08;;;;;;;5.38;2.60;;;;;;;-142.70;100.00;60390.16;4713057;30;20504;-81
2021/05/07 17:29:34;;;;;;;5.72;2.28;;;;;;;-142.70;100.00;60390.16;4698015;30;20049;-81
2021/05/07 17:31:59;;;;;;;4.05;1.95;;;;;;;-142.70;100.00;60390.16;4683776;30;20163;-81
2021/05/07 17:34:25;;;;;;;3.83;2.50;;;;;;;-142.70;100.00;60390.16;4728708;30;20043;-82
2021/05/07 17:36:50;;;;;;;9.25;2.95;;;;;;;-142.70;100.00;60390.16;4727897;30;20033;-81
2021/05/07 17:39:16;;;;;;;6.22;2.60;;;;;;;-142.70;100.00;60390.16;4702887;30;20425;-80
2021/05/07 17:41:41;;;;;;;3.60;2.35;;;;;;;-142.70;100.00;60390.16;4737405;30;20468;-81
2021/05/07 17:44:10;;;;;;;6.78;3.53;;;;;;;-142.70;100.00;60390.16;4729635;30;20056;-80
2021/05/07 17:46:38;;;;;;;4.80;2.67;;;;;;;-142.70;100.00;60390.16;4696334;30;20048;-80
2021/05/07 17:49:04;;;;;;;5.90;2.53;;;;;;;-142.70;100.00;60390.16;4698858;30;20074;-80
2021/05/07 17:51:29;;;;;;;6.72;2.42;;;;;;;-142.70;100.00;60390.16;4711765;30;20044;-81
2021/05/07 17:53:55;;;;;;;6.35;1.92;;;;;;;-142.70;100.00;60390.16;4697781;30;20080;-80
2021/05/07 17:56:20;;;;;;;5.20;2.47;;;;;;;-142.70;100.00;60390.16;4712692;30;20037;-80
2021/05/07 17:58:46;;;;;;;4.00;2.40;;;;;;;-142.70;100.00;60390.16;4727754;30;20032;-81
2021/05/07 18:01:11;;;;;;;5.65;2.33;;;;;;;-142.70;100.00;60390.16;4712785;30;20083;-80
2021/05/07 18:03:36;;;;;;;2.97;2.10;;;;;;;-142.70;100.00;60390.16;4727526;30;20113;-80
2021/05/07 18:06:02;;;;;;;6.30;3.25;;;;;;;-142.70;100.00;60390.16;4727332;30;20510;-81
2021/05/07 18:08:27;;;;;;;3.90;2.65;;;;;;;-142.70;100.00;60390.16;4703965;30;20040;-81
2021/05/07 18:10:53;;;;;;;3.70;2.13;;;;;;;-142.70;100.00;60390.16;4694963;30;20037;-82
2021/05/07 18:13:18;;;;;;;3.72;2.00;;;;;;;-142.70;100.00;60390.16;4694884;30;20036;-83
2021/05/07 18:15:44;;;;;;;3.65;1.52;;;;;;;-142.70;100.00;60390.16;4709204;30;20033;-82
2021/05/07 18:18:11;;;;;;;1.83;1.50;;;;;;;-142.70;100.00;60390.16;4712441;30;20045;-81
2021/05/07 18:20:36;;;;;;;4.45;1.40;;;;;;;-142.70;100.00;60390.16;4712089;30;20033;-80
2021/05/07 18:23:02;;;;;;;5.53;1.90;;;;;;;-142.70;100.00;60390.16;4712697;30;20028;-80
2021/05/07 18:25:27;;;;;;;5.72;1.88;;;;;;;-142.70;100.00;60390.16;4727381;30;20044;-82
2021/05/07 18:27:53;;;;;;;2.20;1.60;;;;;;;-142.70;100.00;60390.16;4728424;30;20063;-81
2021/05/07 18:30:22;;;;;;;1.88;1.45;;;;;;;-142.70;100.00;60390.16;4726350;30;20036;-80
2021/05/07 18:32:47;;;;;;;6.57;1.47;;;;;;;-142.70;100.00;60390.16;4698132;30;20033;-80
2021/05/07 18:35:13;;;;;;;8.10;1.80;;;;;;;-142.70;100.00;60390.16;4727005;30;20029;-81
2021/05/07 18:37:39;;;;;;;5.50;1.90;;;;;;;-142.70;100.00;60390.16;4711416;30;20124;-81
2021/05/07 18:40:06;;;;;;;4.57;1.27;;;;;;;-142.70;100.00;60390.16;4712788;30;20044;-81
2021/05/07 18:42:31;;;;;;;2.08;1.23;;;;;;;-142.70;100.00;60390.16;4696441;30;20044;-80
2021/05/07 18:44:56;;;;;;;2.22;1.08;;;;;;;-142.70;100.00;60390.16;4712688;30;20028;-81
2021/05/07 18:47:22;;;;;;;1.75;0.80;;;;;;;-142.70;100.00;60390.16;4725964;30;20067;-81
2021/05/07 18:49:47;;;;;;;1.75;1.30;;;;;;;-142.70;100.00;60390.16;4712289;30;20041;-84